馬祖南竿航空站 - ATIS

METAR RCFG 201100Z 22018KT 7000 FEW007 SCT012 BKN100 19/18 Q1009 NOSIG RMK MAX WND 24KT 22018KT/R03 20025G38KT/NJL A2981(Q)=

站台狀態:Online
最後更新:2019-03-21 03:15:01